Time;durP1;ratioP1;P1;durP2;ratioP2;P2;SDS_P1;SDS_P2;PMS_P1;PMS_P2;Temp;Humidity;BMP_temperature;BMP_pressure;BME280_temperature;BME280_humidity;BME280_pressure;Samples;Min_cycle;Max_cycle;Signal;HPM_P1;HPM_P2
2022/08/20 00:01:21;;;;;;;1.00;1.00;;;25.20;66.10;;;;;;5068649;28;43895;-75
2022/08/20 00:03:50;;;;;;;1.10;1.10;;;25.30;65.60;;;;;;5069016;28;43993;-72
2022/08/20 00:06:22;;;;;;;1.23;1.10;;;25.30;65.40;;;;;;5068376;28;43929;-74
2022/08/20 00:08:50;;;;;;;0.90;0.90;;;25.30;65.40;;;;;;5065020;28;45292;-74
2022/08/20 00:11:21;;;;;;;0.97;0.97;;;25.30;65.40;;;;;;5066839;28;43967;-73
2022/08/20 00:13:53;;;;;;;1.00;1.00;;;25.20;65.60;;;;;;5068488;28;43999;-74
2022/08/20 00:16:21;;;;;;;1.13;1.13;;;25.20;66.00;;;;;;5066844;28;45766;-74
2022/08/20 00:18:51;;;;;;;1.03;1.03;;;25.20;66.00;;;;;;5067722;28;43937;-74
2022/08/20 00:21:20;;;;;;;1.00;1.00;;;25.10;65.70;;;;;;5068201;28;43912;-74
2022/08/20 00:23:53;;;;;;;1.00;1.00;;;25.10;66.30;;;;;;5066665;28;43977;-76
2022/08/20 00:26:22;;;;;;;0.83;0.83;;;25.10;66.50;;;;;;5068323;28;43932;-74
2022/08/20 00:28:51;;;;;;;0.90;0.90;;;25.10;66.00;;;;;;5067605;28;43997;-73
2022/08/20 00:31:20;;;;;;;0.83;0.83;;;25.30;65.70;;;;;;5067879;28;44015;-74
2022/08/20 00:33:51;;;;;;;0.90;0.90;;;25.40;66.10;;;;;;5067633;28;44124;-74
2022/08/20 00:36:20;;;;;;;1.05;1.05;;;25.40;65.40;;;;;;5067421;28;43934;-74
2022/08/20 00:38:48;;;;;;;0.90;0.90;;;25.30;65.30;;;;;;5067462;28;43917;-74
2022/08/20 00:41:18;;;;;;;0.90;0.90;;;25.30;65.70;;;;;;5067705;28;43339;-74
2022/08/20 00:43:48;;;;;;;1.07;1.07;;;25.20;65.90;;;;;;5067801;28;44039;-74
2022/08/20 00:46:19;;;;;;;0.83;0.83;;;25.20;65.90;;;;;;5067906;28;43972;-74
2022/08/20 00:48:58;;;;;;;0.90;0.90;;;25.20;65.80;;;;;;5067760;28;43370;-74
2022/08/20 00:51:31;;;;;;;1.00;1.00;;;25.10;66.20;;;;;;5067845;28;43857;-74
2022/08/20 00:54:04;;;;;;;0.83;0.83;;;25.10;66.40;;;;;;5068139;28;43901;-73
2022/08/20 00:56:32;;;;;;;1.07;1.07;;;25.10;66.30;;;;;;5067225;28;43964;-73
2022/08/20 00:59:00;;;;;;;1.10;1.10;;;25.10;66.10;;;;;;5067302;28;44025;-74
2022/08/20 01:01:32;;;;;;;0.93;0.93;;;25.00;66.60;;;;;;5067832;28;43940;-74
2022/08/20 01:04:15;;;;;;;0.90;0.90;;;25.10;66.80;;;;;;5067882;28;43932;-74
2022/08/20 01:06:43;;;;;;;1.20;1.20;;;25.10;66.30;;;;;;5066738;28;43954;-73
2022/08/20 01:09:12;;;;;;;1.00;1.00;;;25.20;65.90;;;;;;5067459;28;43956;-74
2022/08/20 01:11:42;;;;;;;1.00;1.00;;;25.30;66.40;;;;;;5067076;28;43858;-74
2022/08/20 01:14:28;;;;;;;0.80;0.80;;;25.30;65.50;;;;;;5066897;28;44225;-74
2022/08/20 01:17:02;;;;;;;0.93;0.93;;;25.30;65.40;;;;;;5065378;28;45633;-75
2022/08/20 01:19:31;;;;;;;0.80;0.80;;;25.20;65.90;;;;;;5065311;28;44851;-74
2022/08/20 01:21:59;;;;;;;0.87;0.87;;;25.20;66.20;;;;;;5066072;28;43443;-73
2022/08/20 01:24:29;;;;;;;0.90;0.90;;;25.10;66.00;;;;;;5067274;28;43517;-74
2022/08/20 01:26:58;;;;;;;1.07;1.07;;;25.10;66.00;;;;;;5066826;28;43735;-73
2022/08/20 01:29:29;;;;;;;1.17;1.17;;;25.10;66.40;;;;;;5067027;28;44045;-74
2022/08/20 01:32:00;;;;;;;0.90;0.90;;;25.10;66.60;;;;;;5067264;28;43346;-74
2022/08/20 01:34:28;;;;;;;0.90;0.90;;;25.10;66.20;;;;;;5067161;28;43901;-75
2022/08/20 01:36:57;;;;;;;1.00;1.00;;;25.20;65.80;;;;;;5066665;28;43962;-74
2022/08/20 01:39:28;;;;;;;0.90;0.90;;;25.30;65.50;;;;;;5065766;28;44793;-73
2022/08/20 01:42:03;;;;;;;0.90;0.90;;;25.30;65.40;;;;;;5066252;28;43440;-73
2022/08/20 01:44:31;;;;;;;1.00;1.00;;;25.30;65.40;;;;;;5067074;28;44225;-74
2022/08/20 01:47:08;;;;;;;1.10;1.10;;;25.20;65.70;;;;;;5067029;28;43999;-75
2022/08/20 01:49:42;;;;;;;0.90;0.90;;;25.20;66.10;;;;;;5066081;28;43318;-75
2022/08/20 01:52:16;;;;;;;1.10;1.10;;;25.20;66.10;;;;;;5065259;28;43894;-75
2022/08/20 01:54:45;;;;;;;1.00;1.00;;;25.10;65.90;;;;;;5066357;28;44055;-74
2022/08/20 01:57:15;;;;;;;1.00;1.00;;;25.10;66.20;;;;;;5067160;28;44066;-74
2022/08/20 01:59:43;;;;;;;1.00;1.00;;;25.10;66.60;;;;;;5066024;28;44092;-74
2022/08/20 02:02:12;;;;;;;1.00;1.00;;;25.00;66.40;;;;;;5066756;28;43952;-73
2022/08/20 02:04:43;;;;;;;0.90;0.90;;;25.10;66.40;;;;;;5066285;28;43938;-74
2022/08/20 02:07:16;;;;;;;1.10;1.10;;;25.00;66.40;;;;;;5066102;28;44053;-74
2022/08/20 02:09:44;;;;;;;1.10;1.10;;;25.00;66.80;;;;;;5065669;28;44002;-74
2022/08/20 02:12:16;;;;;;;1.10;1.10;;;25.00;66.60;;;;;;5064962;28;43905;-74
2022/08/20 02:14:45;;;;;;;0.73;0.73;;;25.10;66.20;;;;;;5066965;28;43969;-75
2022/08/20 02:17:13;;;;;;;1.00;1.00;;;25.30;65.70;;;;;;5065876;28;45109;-73
2022/08/20 02:19:43;;;;;;;1.00;1.00;;;25.40;65.40;;;;;;5066307;28;44188;-73
2022/08/20 02:22:14;;;;;;;1.23;1.23;;;25.40;65.40;;;;;;5066207;28;43996;-74
2022/08/20 02:24:43;;;;;;;1.00;1.00;;;25.30;65.30;;;;;;5066086;28;43878;-74
2022/08/20 02:27:11;;;;;;;1.17;1.17;;;25.30;65.80;;;;;;5065777;28;43908;-73
2022/08/20 02:29:40;;;;;;;1.00;1.00;;;25.20;65.90;;;;;;5065286;28;43898;-74
2022/08/20 02:32:08;;;;;;;1.07;1.07;;;25.20;65.90;;;;;;5069120;28;43953;-74
2022/08/20 02:34:56;;;;;;;1.03;1.03;;;25.20;65.70;;;;;;5070186;28;43999;-75
2022/08/20 02:37:27;;;;;;;1.00;1.00;;;25.10;66.30;;;;;;5069741;28;44406;-74
2022/08/20 02:39:55;;;;;;;1.10;1.10;;;25.10;66.50;;;;;;5069801;28;43982;-73
2022/08/20 02:42:23;;;;;;;1.00;1.00;;;25.10;66.40;;;;;;5069425;28;43296;-74
2022/08/20 02:44:52;;;;;;;1.20;1.20;;;25.00;66.10;;;;;;5068136;28;43583;-74
2022/08/20 02:47:20;;;;;;;1.10;1.10;;;25.00;66.80;;;;;;5069495;28;44033;-74
2022/08/20 02:49:48;;;;;;;1.00;1.00;;;25.00;66.90;;;;;;5069388;28;43893;-74
2022/08/20 02:52:16;;;;;;;1.00;1.00;;;25.00;66.70;;;;;;5068139;28;44013;-74
2022/08/20 02:54:44;;;;;;;1.00;1.00;;;25.00;66.40;;;;;;5069034;28;43864;-75
2022/08/20 02:57:13;;;;;;;1.15;1.15;;;25.00;67.00;;;;;;5069403;28;44830;-73
2022/08/20 02:59:41;;;;;;;1.00;1.00;;;25.00;67.00;;;;;;5069326;28;44029;-75
2022/08/20 03:02:13;;;;;;;1.13;1.13;;;25.10;66.60;;;;;;5069356;28;43897;-74
2022/08/20 03:04:42;;;;;;;1.13;1.13;;;25.20;66.10;;;;;;5069402;28;43831;-75
2022/08/20 03:07:10;;;;;;;0.90;0.90;;;25.30;65.50;;;;;;5069216;28;43977;-73
2022/08/20 03:09:38;;;;;;;1.10;1.10;;;25.40;65.60;;;;;;5068807;28;43936;-73
2022/08/20 03:12:09;;;;;;;1.07;1.07;;;25.30;65.40;;;;;;5069157;28;43836;-74
2022/08/20 03:14:40;;;;;;;0.93;0.93;;;25.30;65.60;;;;;;5069128;28;43414;-75
2022/08/20 03:17:08;;;;;;;1.10;1.10;;;25.20;65.90;;;;;;5069207;28;43909;-73
2022/08/20 03:19:37;;;;;;;1.00;1.00;;;25.20;66.00;;;;;;5068500;28;43461;-73
2022/08/20 03:22:05;;;;;;;1.00;1.00;;;25.20;65.90;;;;;;5069375;28;43813;-74
2022/08/20 03:24:33;;;;;;;0.90;0.90;;;25.10;65.70;;;;;;5067739;28;44058;-74
2022/08/20 03:27:05;;;;;;;1.20;1.20;;;25.10;66.50;;;;;;5069188;28;43891;-74
2022/08/20 03:29:34;;;;;;;1.30;1.30;;;25.10;66.60;;;;;;5068307;28;43982;-73
2022/08/20 03:32:02;;;;;;;1.67;1.57;;;25.00;66.30;;;;;;5069006;28;44001;-73
2022/08/20 03:34:34;;;;;;;1.93;1.73;;;25.00;66.10;;;;;;5068571;28;43944;-74
2022/08/20 03:37:04;;;;;;;3.53;2.10;;;25.00;66.70;;;;;;5068444;28;45116;-74
2022/08/20 03:39:34;;;;;;;3.50;2.40;;;25.00;66.90;;;;;;5068500;28;43877;-74
2022/08/20 03:42:02;;;;;;;3.50;2.58;;;25.10;66.60;;;;;;5068145;28;43963;-74
2022/08/20 03:44:30;;;;;;;5.00;2.77;;;25.20;65.90;;;;;;5068963;28;43887;-74
2022/08/20 03:46:58;;;;;;;3.93;2.70;;;25.30;65.60;;;;;;5068546;28;44266;-74
2022/08/20 03:49:34;;;;;;;4.47;2.83;;;25.30;65.40;;;;;;5066975;28;44666;-74
2022/08/20 03:52:08;;;;;;;4.47;2.57;;;25.30;65.40;;;;;;5068642;28;44026;-74
2022/08/20 03:54:36;;;;;;;2.90;2.60;;;25.30;65.50;;;;;;5068574;28;44265;-74
2022/08/20 03:57:05;;;;;;;3.13;2.70;;;25.20;65.90;;;;;;5068348;28;44868;-74
2022/08/20 03:59:41;;;;;;;4.20;2.60;;;25.20;66.10;;;;;;5067923;28;43832;-73
2022/08/20 04:02:09;;;;;;;3.38;2.72;;;25.10;65.90;;;;;;5068557;28;43732;-73
2022/08/20 04:04:40;;;;;;;3.78;2.90;;;25.10;65.90;;;;;;5068227;28;44077;-74
2022/08/20 04:07:11;;;;;;;6.60;3.40;;;25.10;66.60;;;;;;5068036;28;43961;-74
2022/08/20 04:09:42;;;;;;;6.40;3.03;;;25.00;66.60;;;;;;5067878;28;44105;-74
2022/08/20 04:12:12;;;;;;;5.53;3.10;;;25.10;66.50;;;;;;5068101;28;43944;-74
2022/08/20 04:14:43;;;;;;;7.22;3.42;;;25.00;66.10;;;;;;5068581;28;43273;-75
2022/08/20 04:17:12;;;;;;;5.50;3.17;;;25.00;66.80;;;;;;5067978;28;44039;-74
2022/08/20 04:19:43;;;;;;;4.33;2.90;;;25.00;66.80;;;;;;5067197;28;43752;-74
2022/08/20 04:22:13;;;;;;;5.05;3.10;;;25.10;66.40;;;;;;5067990;28;43430;-74
2022/08/20 04:24:41;;;;;;;6.70;3.70;;;25.20;66.00;;;;;;5067739;28;43922;-75
2022/08/20 04:27:10;;;;;;;5.40;3.23;;;25.30;65.40;;;;;;5067996;28;43955;-74
2022/08/20 04:29:41;;;;;;;6.03;3.30;;;25.40;65.50;;;;;;5067512;28;44077;-74
2022/08/20 04:32:11;;;;;;;6.82;3.28;;;25.30;65.40;;;;;;5068000;28;43972;-73
2022/08/20 04:34:44;;;;;;;9.82;3.55;;;25.30;65.50;;;;;;5067517;28;44070;-73
2022/08/20 04:37:19;;;;;;;4.03;2.97;;;25.30;66.70;;;;;;5066154;28;45364;-75
2022/08/20 04:40:52;;;;;;;4.43;3.10;;;25.20;66.00;;;;;;5066568;28;44249;-75
2022/08/20 04:42:36;;;;;;;4.00;3.10;;;25.20;65.90;;;;;;5067280;28;44019;-74
2022/08/20 04:45:07;;;;;;;6.50;3.40;;;25.10;66.00;;;;;;5068631;28;43995;-73
2022/08/20 04:47:35;;;;;;;4.50;3.07;;;25.10;66.50;;;;;;5067740;28;43681;-74
2022/08/20 04:50:03;;;;;;;6.00;3.27;;;25.10;66.50;;;;;;5068057;28;43990;-74
2022/08/20 04:52:36;;;;;;;4.68;2.90;;;25.10;66.30;;;;;;5067748;28;43993;-74
2022/08/20 04:55:08;;;;;;;5.10;3.50;;;25.00;66.20;;;;;;5067605;28;43932;-75
2022/08/20 04:57:37;;;;;;;4.90;3.10;;;25.00;66.90;;;;;;5067433;28;43783;-74
2022/08/20 05:00:07;;;;;;;5.90;3.40;;;25.00;66.80;;;;;;5067877;28;43943;-73
2022/08/20 05:02:36;;;;;;;4.60;3.27;;;25.00;66.60;;;;;;5066029;28;43984;-74
2022/08/20 05:05:07;;;;;;;6.77;3.40;;;25.00;66.30;;;;;;5068381;28;43762;-74
2022/08/20 05:07:42;;;;;;;5.93;3.47;;;25.00;67.00;;;;;;5067374;28;43941;-74
2022/08/20 05:10:12;;;;;;;3.43;3.03;;;25.00;67.00;;;;;;5067668;28;43341;-74
2022/08/20 05:12:40;;;;;;;4.50;3.28;;;25.10;66.50;;;;;;5067478;28;44191;-75
2022/08/20 05:15:10;;;;;;;4.43;3.10;;;25.20;65.90;;;;;;5068325;28;43964;-74
2022/08/20 05:17:38;;;;;;;3.40;3.00;;;25.30;65.50;;;;;;5067149;28;43991;-74
2022/08/20 05:20:08;;;;;;;3.90;2.90;;;25.40;65.50;;;;;;5067717;28;44459;-74
2022/08/20 05:22:36;;;;;;;4.33;3.37;;;25.30;65.40;;;;;;5067351;28;43336;-73
2022/08/20 05:25:08;;;;;;;3.57;3.17;;;25.30;65.60;;;;;;5067883;28;43956;-74
2022/08/20 05:27:38;;;;;;;5.03;3.00;;;25.20;65.90;;;;;;5067448;28;45056;-75
2022/08/20 05:30:08;;;;;;;5.05;3.25;;;25.20;66.00;;;;;;5067262;28;44010;-73
2022/08/20 05:32:40;;;;;;;4.03;3.00;;;25.10;65.90;;;;;;5067355;28;44250;-74
2022/08/20 05:35:11;;;;;;;3.83;3.03;;;25.10;66.30;;;;;;5066342;28;43951;-74
2022/08/20 05:37:40;;;;;;;4.00;3.20;;;25.10;66.60;;;;;;5067252;28;43883;-73
2022/08/20 05:40:11;;;;;;;3.22;2.70;;;25.10;66.60;;;;;;5067052;28;43856;-73
2022/08/20 05:42:40;;;;;;;4.00;2.73;;;25.10;66.30;;;;;;5066918;28;43880;-73
2022/08/20 05:45:08;;;;;;;3.08;2.83;;;25.00;66.30;;;;;;5067306;28;44027;-74
2022/08/20 05:47:38;;;;;;;3.85;2.97;;;25.00;66.90;;;;;;5067089;28;43919;-72
2022/08/20 05:50:10;;;;;;;5.17;3.07;;;25.00;66.80;;;;;;5067316;28;43975;-75
2022/08/20 05:52:47;;;;;;;4.35;3.15;;;25.10;66.30;;;;;;5065200;28;43920;-74
2022/08/20 05:55:16;;;;;;;3.20;2.97;;;25.30;65.80;;;;;;5067261;28;44001;-74
2022/08/20 05:57:44;;;;;;;3.83;2.80;;;25.30;65.70;;;;;;5067108;28;44799;-74
2022/08/20 06:00:13;;;;;;;2.55;2.35;;;25.30;65.70;;;;;;5065411;28;45270;-74
2022/08/20 06:05:30;;;;;;;3.53;2.97;;;25.20;66.10;;;;;;5067120;28;44126;-74
2022/08/20 06:07:58;;;;;;;3.20;2.90;;;25.10;66.30;;;;;;5066939;28;44950;-74
2022/08/20 06:10:41;;;;;;;3.53;2.77;;;25.10;66.20;;;;;;5065002;28;44884;-73
2022/08/20 06:13:10;;;;;;;3.10;2.90;;;25.10;66.00;;;;;;5065451;28;43375;-74
2022/08/20 06:15:41;;;;;;;2.97;2.78;;;25.10;66.80;;;;;;5065490;28;44206;-74
2022/08/20 06:18:09;;;;;;;2.97;2.77;;;25.00;66.50;;;;;;5066690;28;43829;-75
2022/08/20 06:20:56;;;;;;;2.53;2.43;;;25.20;66.30;;;;;;5066271;28;43933;-74
2022/08/20 06:23:25;;;;;;;3.10;2.80;;;25.30;65.80;;;;;;5066660;28;43706;-74
2022/08/20 06:26:16;;;;;;;2.87;2.60;;;25.30;65.70;;;;;;5067165;28;44050;-75
2022/08/20 06:28:57;;;;;;;3.43;2.47;;;25.30;65.70;;;;;;5066354;28;43877;-73
2022/08/20 06:31:26;;;;;;;2.95;2.70;;;25.20;65.70;;;;;;5066198;28;43995;-73
2022/08/20 06:33:54;;;;;;;3.07;2.73;;;25.10;66.10;;;;;;5066527;28;43370;-74
2022/08/20 06:36:22;;;;;;;2.87;2.63;;;25.10;66.30;;;;;;5065511;28;43545;-74
2022/08/20 06:38:50;;;;;;;2.53;2.43;;;25.10;66.20;;;;;;5064631;28;46995;-74
2022/08/20 06:41:24;;;;;;;2.30;2.10;;;25.00;66.00;;;;;;5064387;28;44544;-75
2022/08/20 06:44:04;;;;;;;2.63;2.43;;;25.00;66.70;;;;;;5064971;28;44040;-74
2022/08/20 06:46:32;;;;;;;2.50;2.40;;;25.00;66.80;;;;;;5066538;28;43948;-73
2022/08/20 06:49:08;;;;;;;2.37;2.27;;;25.00;66.60;;;;;;5064890;28;45808;-73
2022/08/20 06:51:37;;;;;;;2.80;2.60;;;24.90;66.50;;;;;;5064340;28;43436;-74
2022/08/20 06:54:09;;;;;;;2.53;2.37;;;24.90;67.00;;;;;;5066426;28;44261;-74
2022/08/20 06:56:39;;;;;;;2.67;2.47;;;25.00;66.90;;;;;;5066499;28;43868;-75
2022/08/20 06:59:07;;;;;;;2.90;2.70;;;25.10;66.40;;;;;;5064658;28;45751;-74
2022/08/20 07:01:34;;;;;;;2.43;2.23;;;25.20;65.90;;;;;;5065743;28;43939;-74
2022/08/20 07:04:07;;;;;;;2.50;2.30;;;25.30;65.90;;;;;;5065920;28;43410;-74
2022/08/20 07:06:35;;;;;;;2.57;2.10;;;25.30;65.80;;;;;;5066296;28;43415;-74
2022/08/20 07:09:03;;;;;;;2.13;2.03;;;25.20;65.80;;;;;;5066099;28;43978;-74
2022/08/20 07:11:31;;;;;;;2.57;2.37;;;25.10;66.20;;;;;;5066033;28;43971;-74
2022/08/20 07:14:02;;;;;;;2.10;2.00;;;25.10;66.10;;;;;;5066019;28;43980;-74
2022/08/20 07:16:32;;;;;;;2.20;2.10;;;25.10;66.20;;;;;;5064442;28;43991;-74
2022/08/20 07:19:02;;;;;;;2.10;2.00;;;25.00;65.80;;;;;;5069470;28;44514;-74
2022/08/20 07:21:31;;;;;;;2.10;2.00;;;25.00;66.40;;;;;;5068686;28;43966;-75
2022/08/20 07:23:59;;;;;;;2.30;2.17;;;25.00;66.40;;;;;;5069626;28;43990;-73
2022/08/20 07:26:29;;;;;;;1.93;1.83;;;25.00;66.40;;;;;;5069259;28;44031;-74
2022/08/20 07:28:57;;;;;;;2.00;2.00;;;25.00;66.10;;;;;;5069231;28;44982;-73
2022/08/20 07:34:15;;;;;;;1.90;1.80;;;24.90;66.10;;;;;;5067848;28;43399;-74
2022/08/20 07:36:43;;;;;;;1.90;1.80;;;25.00;65.70;;;;;;5069487;28;44039;-73
2022/08/20 07:39:11;;;;;;;1.95;1.85;;;25.10;65.30;;;;;;5069236;28;44006;-74
2022/08/20 07:41:39;;;;;;;2.20;2.10;;;25.30;64.80;;;;;;5068730;28;44016;-73
2022/08/20 07:44:07;;;;;;;1.80;1.70;;;25.30;64.50;;;;;;5069157;28;43915;-75
2022/08/20 07:46:37;;;;;;;2.83;1.80;;;25.30;64.50;;;;;;5067609;28;43912;-74
2022/08/20 07:49:08;;;;;;;1.93;1.83;;;25.20;64.60;;;;;;5068910;28;43926;-75
2022/08/20 07:51:39;;;;;;;2.67;1.70;;;25.10;64.70;;;;;;5068239;28;43470;-73
2022/08/20 07:54:07;;;;;;;1.73;1.70;;;25.10;64.80;;;;;;5068767;28;44036;-74
2022/08/20 07:56:35;;;;;;;1.70;1.60;;;25.10;65.00;;;;;;5069087;28;44190;-75
2022/08/20 07:59:03;;;;;;;1.63;1.63;;;25.00;65.10;;;;;;5068903;28;44023;-74
2022/08/20 08:01:31;;;;;;;1.60;1.60;;;25.00;65.50;;;;;;5068369;28;43897;-73
2022/08/20 08:04:01;;;;;;;1.83;1.80;;;25.00;65.50;;;;;;5068492;28;43399;-74
2022/08/20 08:06:29;;;;;;;1.95;1.85;;;25.00;65.60;;;;;;5068770;28;44043;-74
2022/08/20 08:09:01;;;;;;;1.80;1.70;;;24.90;65.40;;;;;;5068484;28;43924;-74
2022/08/20 08:11:29;;;;;;;4.80;1.77;;;24.90;65.70;;;;;;5068451;28;43443;-74
2022/08/20 08:13:57;;;;;;;1.57;1.50;;;24.90;65.30;;;;;;5068803;28;43939;-74
2022/08/20 08:16:25;;;;;;;1.80;1.60;;;25.00;64.70;;;;;;5068957;28;43978;-74
2022/08/20 08:18:55;;;;;;;1.70;1.60;;;25.10;64.30;;;;;;5068620;28;44022;-74
2022/08/20 08:21:30;;;;;;;1.73;1.63;;;25.20;64.10;;;;;;5068317;28;43812;-74
2022/08/20 08:24:03;;;;;;;1.50;1.50;;;25.20;64.10;;;;;;5068755;28;43285;-74
2022/08/20 08:26:31;;;;;;;1.30;1.30;;;25.10;64.10;;;;;;5068573;28;43379;-74
2022/08/20 08:28:59;;;;;;;1.50;1.50;;;25.10;64.40;;;;;;5065674;28;46989;-73
2022/08/20 08:31:29;;;;;;;1.60;1.50;;;25.00;64.50;;;;;;5068534;28;44009;-74
2022/08/20 08:33:57;;;;;;;1.53;1.53;;;25.00;64.50;;;;;;5068651;28;43892;-73
2022/08/20 08:36:27;;;;;;;1.50;1.50;;;25.00;64.60;;;;;;5069101;28;43873;-73
2022/08/20 08:38:55;;;;;;;1.63;1.60;;;24.90;65.00;;;;;;5067085;28;44935;-73
2022/08/20 08:41:28;;;;;;;1.77;1.67;;;24.90;64.80;;;;;;5068275;28;43979;-73
2022/08/20 08:43:59;;;;;;;1.40;1.40;;;24.90;64.80;;;;;;5066613;28;43900;-74
2022/08/20 08:46:29;;;;;;;1.27;1.27;;;24.90;64.80;;;;;;5068562;28;44030;-74
2022/08/20 08:49:00;;;;;;;1.17;1.17;;;24.80;64.80;;;;;;5067865;28;44440;-73
2022/08/20 08:51:33;;;;;;;1.87;1.40;;;24.90;64.70;;;;;;5066261;28;44050;-75
2022/08/20 08:54:02;;;;;;;1.10;1.10;;;24.90;64.30;;;;;;5068089;28;44034;-74
2022/08/20 08:56:34;;;;;;;1.30;1.30;;;25.00;63.80;;;;;;5068310;28;43859;-74
2022/08/20 08:59:04;;;;;;;1.33;1.33;;;25.10;63.30;;;;;;5067773;28;44016;-74
2022/08/20 09:01:32;;;;;;;1.33;1.33;;;25.10;63.20;;;;;;5067588;28;43915;-74
2022/08/20 09:04:21;;;;;;;1.30;1.30;;;25.10;63.30;;;;;;5068103;28;43986;-74
2022/08/20 09:06:52;;;;;;;1.37;1.37;;;25.10;63.50;;;;;;5067657;28;44387;-73
2022/08/20 09:09:22;;;;;;;1.30;1.30;;;25.00;62.80;;;;;;5067788;28;43762;-74
2022/08/20 09:11:53;;;;;;;1.20;1.20;;;25.00;62.20;;;;;;5067311;28;43967;-74
2022/08/20 09:14:23;;;;;;;1.10;1.10;;;24.90;62.70;;;;;;5068081;28;43968;-74
2022/08/20 09:16:51;;;;;;;1.20;1.20;;;24.90;62.90;;;;;;5066470;28;43573;-75
2022/08/20 09:19:20;;;;;;;1.50;1.30;;;24.90;62.40;;;;;;5067607;28;43978;-74
2022/08/20 09:21:48;;;;;;;1.17;1.17;;;24.90;61.90;;;;;;5067078;28;43972;-74
2022/08/20 09:24:18;;;;;;;1.07;1.07;;;24.80;62.20;;;;;;5067575;28;43389;-74
2022/08/20 09:26:46;;;;;;;1.30;1.20;;;24.80;63.20;;;;;;5067992;28;43753;-74
2022/08/20 09:29:14;;;;;;;1.30;1.20;;;24.80;62.70;;;;;;5067170;28;44009;-74
2022/08/20 09:31:42;;;;;;;1.53;1.47;;;24.80;61.70;;;;;;5066953;28;44002;-74
2022/08/20 09:34:14;;;;;;;1.20;1.20;;;24.80;61.40;;;;;;5067414;28;43990;-74
2022/08/20 09:36:46;;;;;;;1.37;1.30;;;25.00;60.90;;;;;;5067579;28;43954;-75
2022/08/20 09:39:14;;;;;;;1.97;1.17;;;25.10;60.30;;;;;;5067400;28;44876;-73
2022/08/20 09:41:44;;;;;;;1.40;1.30;;;25.10;60.00;;;;;;5066317;28;43972;-73
2022/08/20 09:44:12;;;;;;;1.20;1.20;;;25.10;60.30;;;;;;5065937;28;43469;-74
2022/08/20 09:46:40;;;;;;;1.37;1.20;;;25.00;60.90;;;;;;5067307;28;43991;-75
2022/08/20 09:49:07;;;;;;;1.10;1.10;;;25.00;59.40;;;;;;5067300;28;43931;-73
2022/08/20 09:51:37;;;;;;;1.90;1.30;;;25.00;59.20;;;;;;5066584;28;44024;-74
2022/08/20 09:54:06;;;;;;;1.10;1.10;;;24.90;60.10;;;;;;5067083;28;43919;-73
2022/08/20 09:56:36;;;;;;;2.23;1.50;;;24.90;60.40;;;;;;5065582;28;43968;-73
2022/08/20 09:59:05;;;;;;;1.33;1.17;;;24.90;60.00;;;;;;5066919;28;44027;-73
2022/08/20 10:01:33;;;;;;;1.03;1.03;;;24.80;59.00;;;;;;5066483;28;43947;-74
2022/08/20 10:04:01;;;;;;;3.00;1.10;;;24.90;58.80;;;;;;5066761;28;43922;-74
2022/08/20 10:06:29;;;;;;;1.40;1.30;;;25.00;58.50;;;;;;5065370;28;43554;-73
2022/08/20 10:09:04;;;;;;;1.00;1.00;;;25.10;58.30;;;;;;5065049;28;45914;-74
2022/08/20 10:11:32;;;;;;;1.50;1.40;;;25.10;58.20;;;;;;5066619;28;43945;-74
2022/08/20 10:14:02;;;;;;;1.27;1.17;;;25.10;59.30;;;;;;5065440;28;43933;-74
2022/08/20 10:16:32;;;;;;;2.23;1.27;;;25.00;59.10;;;;;;5066902;28;44180;-73
2022/08/20 10:19:00;;;;;;;1.20;1.20;;;25.00;58.10;;;;;;5066873;28;43607;-74
2022/08/20 10:21:29;;;;;;;1.10;1.10;;;24.90;58.90;;;;;;5064998;28;44778;-73
2022/08/20 10:23:57;;;;;;;1.10;1.10;;;24.90;59.20;;;;;;5066529;28;44021;-74
2022/08/20 10:26:25;;;;;;;1.33;1.30;;;24.90;59.30;;;;;;5067360;28;43387;-74
2022/08/20 10:28:53;;;;;;;1.20;1.20;;;24.80;58.60;;;;;;5066374;28;43923;-74
2022/08/20 10:31:21;;;;;;;1.37;1.27;;;24.80;59.00;;;;;;5066521;28;44428;-74
2022/08/20 10:33:50;;;;;;;1.07;1.07;;;24.90;59.40;;;;;;5066536;28;43334;-74
2022/08/20 10:36:18;;;;;;;1.10;1.10;;;24.80;59.20;;;;;;5067004;28;43991;-75
2022/08/20 10:38:47;;;;;;;1.40;1.30;;;24.80;58.60;;;;;;5066331;28;44709;-73
2022/08/20 10:41:15;;;;;;;1.43;1.30;;;24.80;57.60;;;;;;5065873;28;43785;-74
2022/08/20 10:43:43;;;;;;;1.50;1.40;;;24.90;57.00;;;;;;5066322;28;44075;-74
2022/08/20 10:46:11;;;;;;;1.27;1.27;;;25.00;57.00;;;;;;5066306;28;44218;-73
2022/08/20 10:48:39;;;;;;;1.43;1.40;;;25.10;56.50;;;;;;5064389;28;45685;-72
2022/08/20 10:51:10;;;;;;;1.27;1.27;;;25.10;56.60;;;;;;5064614;28;44799;-74
2022/08/20 10:53:38;;;;;;;1.27;1.17;;;25.10;57.90;;;;;;5068800;28;43928;-74
2022/08/20 10:56:07;;;;;;;1.43;1.33;;;25.10;58.10;;;;;;5068651;28;43491;-74
2022/08/20 10:58:35;;;;;;;1.50;1.40;;;25.00;56.80;;;;;;5069218;28;43938;-74
2022/08/20 11:01:07;;;;;;;1.50;1.40;;;25.00;57.90;;;;;;5069610;28;43952;-73
2022/08/20 11:03:36;;;;;;;1.30;1.30;;;24.90;58.30;;;;;;5069221;28;43948;-73
2022/08/20 11:06:05;;;;;;;1.27;1.27;;;24.90;58.20;;;;;;5069950;28;43355;-74
2022/08/20 11:08:34;;;;;;;1.20;1.20;;;24.90;57.60;;;;;;5069489;28;43872;-73
2022/08/20 11:11:03;;;;;;;1.47;1.47;;;24.90;58.20;;;;;;5069532;28;43987;-74
2022/08/20 11:13:31;;;;;;;1.20;1.20;;;24.80;58.40;;;;;;5067830;28;43974;-74
2022/08/20 11:16:04;;;;;;;1.50;1.40;;;24.80;58.20;;;;;;5070031;28;43952;-74
2022/08/20 11:18:32;;;;;;;1.30;1.30;;;24.80;58.10;;;;;;5069392;28;43736;-74
2022/08/20 11:21:02;;;;;;;1.20;1.20;;;24.90;57.70;;;;;;5069078;28;43923;-74
2022/08/20 11:23:30;;;;;;;1.43;1.00;;;24.90;57.80;;;;;;5069641;28;43988;-74
2022/08/20 11:26:01;;;;;;;1.27;1.17;;;25.00;57.50;;;;;;5070127;28;44027;-74
2022/08/20 11:28:32;;;;;;;1.43;1.43;;;25.10;57.30;;;;;;5069148;28;44910;-74
2022/08/20 11:31:00;;;;;;;1.20;1.20;;;25.10;57.80;;;;;;5069094;28;43971;-74
2022/08/20 11:33:28;;;;;;;1.70;1.10;;;25.10;58.10;;;;;;5069571;28;43993;-75
2022/08/20 11:35:56;;;;;;;1.20;1.20;;;25.00;58.10;;;;;;5069406;28;43908;-74
2022/08/20 11:38:24;;;;;;;1.50;1.50;;;25.00;58.30;;;;;;5069268;28;43940;-74
2022/08/20 11:40:52;;;;;;;1.10;1.10;;;24.90;58.40;;;;;;5068846;28;43989;-74
2022/08/20 11:43:22;;;;;;;1.40;1.30;;;24.90;58.40;;;;;;5069528;28;43949;-74
2022/08/20 11:45:50;;;;;;;1.00;1.00;;;24.90;58.60;;;;;;5069491;28;43945;-74
2022/08/20 11:48:18;;;;;;;1.48;1.35;;;24.80;58.60;;;;;;5069184;28;43967;-74
2022/08/20 11:50:46;;;;;;;1.00;1.00;;;24.80;58.60;;;;;;5068918;28;44013;-75
2022/08/20 11:53:14;;;;;;;1.27;1.27;;;24.90;58.80;;;;;;5068847;28;43969;-73
2022/08/20 11:55:42;;;;;;;1.47;1.47;;;24.80;58.90;;;;;;5069284;28;43365;-74
2022/08/20 11:58:10;;;;;;;1.20;1.20;;;24.80;58.50;;;;;;5069709;28;43964;-74
2022/08/20 12:00:40;;;;;;;1.20;1.20;;;24.90;58.30;;;;;;5069160;28;43892;-74
2022/08/20 12:03:08;;;;;;;1.40;1.40;;;25.00;58.00;;;;;;5069742;28;43857;-73
2022/08/20 12:05:39;;;;;;;1.10;1.10;;;25.10;57.90;;;;;;5069447;28;43327;-74
2022/08/20 12:08:07;;;;;;;1.20;1.20;;;25.10;57.90;;;;;;5067104;28;46776;-75
2022/08/20 12:10:35;;;;;;;1.30;1.20;;;25.10;58.10;;;;;;5066921;28;44302;-74
2022/08/20 12:13:03;;;;;;;1.00;1.00;;;25.10;58.20;;;;;;5068806;28;43885;-74
2022/08/20 12:15:32;;;;;;;1.20;1.20;;;25.00;58.40;;;;;;5067471;28;43946;-75
2022/08/20 12:18:02;;;;;;;1.30;1.17;;;25.00;58.50;;;;;;5068887;28;43876;-74
2022/08/20 12:20:30;;;;;;;1.10;1.10;;;25.00;59.10;;;;;;5069020;28;43908;-74
2022/08/20 12:22:58;;;;;;;1.00;1.00;;;24.90;59.20;;;;;;5068799;28;43931;-72
2022/08/20 12:25:26;;;;;;;1.20;1.20;;;24.90;59.00;;;;;;5069000;28;43416;-75
2022/08/20 12:27:53;;;;;;;1.20;1.20;;;24.90;58.90;;;;;;5068687;28;43909;-73
2022/08/20 12:30:22;;;;;;;1.17;1.17;;;24.90;59.50;;;;;;5068678;28;43886;-73
2022/08/20 12:32:50;;;;;;;1.10;1.10;;;24.80;59.00;;;;;;5067358;28;43959;-74
2022/08/20 12:35:20;;;;;;;1.20;1.20;;;24.80;59.10;;;;;;5068577;28;43840;-75
2022/08/20 12:37:48;;;;;;;1.00;1.00;;;24.80;59.00;;;;;;5066563;28;45698;-74
2022/08/20 12:40:17;;;;;;;1.20;1.20;;;24.80;59.20;;;;;;5068431;28;44012;-74
2022/08/20 12:42:59;;;;;;;1.30;1.30;;;24.80;59.50;;;;;;5068559;28;43386;-75
2022/08/20 12:45:27;;;;;;;1.20;1.20;;;24.80;58.90;;;;;;5067689;28;43979;-74
2022/08/20 12:48:00;;;;;;;1.20;1.10;;;24.80;59.90;;;;;;5066578;28;45797;-74
2022/08/20 12:50:30;;;;;;;1.37;1.27;;;24.80;58.90;;;;;;5068202;28;43861;-75
2022/08/20 12:52:59;;;;;;;1.17;1.17;;;24.90;58.50;;;;;;5066845;28;43921;-73
2022/08/20 12:55:27;;;;;;;1.27;1.20;;;25.00;58.10;;;;;;5068839;28;43975;-73
2022/08/20 12:57:56;;;;;;;8.50;1.37;;;25.10;58.20;;;;;;5068113;28;44670;-72
2022/08/20 13:00:26;;;;;;;3.43;1.53;;;25.20;58.60;;;;;;5068335;28;43937;-75
2022/08/20 13:02:55;;;;;;;2.13;1.50;;;25.20;58.60;;;;;;5068100;28;43983;-74
2022/08/20 13:05:23;;;;;;;10.07;1.50;;;25.10;58.50;;;;;;5068527;28;43969;-74
2022/08/20 13:07:53;;;;;;;3.07;1.20;;;25.10;58.90;;;;;;5067484;28;44690;-74